sensor_id;sensor_type;location;lat;lon;timestamp;pressure;altitude;pressure_sealevel;temperature
74539;BMP180;66042;51.090;-115.340;2023-02-11T00:01:29;86313.80;;;2.40
74539;BMP180;66042;51.090;-115.340;2023-02-11T00:03:57;86316.60;;;2.40
74539;BMP180;66042;51.090;-115.340;2023-02-11T00:06:28;86313.00;;;2.30
74539;BMP180;66042;51.090;-115.340;2023-02-11T00:08:56;86311.00;;;2.30
74539;BMP180;66042;51.090;-115.340;2023-02-11T00:11:24;86311.40;;;2.30
74539;BMP180;66042;51.090;-115.340;2023-02-11T00:13:58;86309.00;;;2.20
74539;BMP180;66042;51.090;-115.340;2023-02-11T00:16:25;86308.00;;;2.20
74539;BMP180;66042;51.090;-115.340;2023-02-11T00:18:51;86308.20;;;2.10
74539;BMP180;66042;51.090;-115.340;2023-02-11T00:21:24;86320.60;;;2.10
74539;BMP180;66042;51.090;-115.340;2023-02-11T00:23:52;86327.60;;;2.10
74539;BMP180;66042;51.090;-115.340;2023-02-11T00:26:34;86321.00;;;2.10
74539;BMP180;66042;51.090;-115.340;2023-02-11T00:29:03;86319.20;;;2.00
74539;BMP180;66042;51.090;-115.340;2023-02-11T00:31:31;86317.40;;;2.00
74539;BMP180;66042;51.090;-115.340;2023-02-11T00:33:59;86314.60;;;1.92
74539;BMP180;66042;51.090;-115.340;2023-02-11T00:36:28;86314.20;;;1.90
74539;BMP180;66042;51.090;-115.340;2023-02-11T00:38:57;86319.80;;;1.90
74539;BMP180;66042;51.090;-115.340;2023-02-11T00:41:25;86325.80;;;1.80
74539;BMP180;66042;51.090;-115.340;2023-02-11T00:43:52;86330.60;;;1.80
74539;BMP180;66042;51.090;-115.340;2023-02-11T00:46:20;86332.00;;;1.72
74539;BMP180;66042;51.090;-115.340;2023-02-11T00:48:47;86327.80;;;1.70
74539;BMP180;66042;51.090;-115.340;2023-02-11T00:51:15;86325.80;;;1.68
74539;BMP180;66042;51.090;-115.340;2023-02-11T00:53:42;86334.80;;;1.60
74539;BMP180;66042;51.090;-115.340;2023-02-11T00:56:09;86338.00;;;1.60
74539;BMP180;66042;51.090;-115.340;2023-02-11T00:58:36;86343.00;;;1.50
74539;BMP180;66042;51.090;-115.340;2023-02-11T01:01:04;86338.80;;;1.50
74539;BMP180;66042;51.090;-115.340;2023-02-11T01:03:31;86346.60;;;1.40
74539;BMP180;66042;51.090;-115.340;2023-02-11T01:05:58;86346.40;;;1.40
74539;BMP180;66042;51.090;-115.340;2023-02-11T01:08:25;86349.80;;;1.36
74539;BMP180;66042;51.090;-115.340;2023-02-11T01:11:04;86353.60;;;1.32
74539;BMP180;66042;51.090;-115.340;2023-02-11T01:13:34;86361.40;;;1.30
74539;BMP180;66042;51.090;-115.340;2023-02-11T01:16:06;86357.00;;;1.30
74539;BMP180;66042;51.090;-115.340;2023-02-11T01:18:34;86357.40;;;1.24
74539;BMP180;66042;51.090;-115.340;2023-02-11T01:21:02;86353.40;;;1.20
74539;BMP180;66042;51.090;-115.340;2023-02-11T01:23:29;86361.00;;;1.16
74539;BMP180;66042;51.090;-115.340;2023-02-11T01:25:56;86359.20;;;1.10
74539;BMP180;66042;51.090;-115.340;2023-02-11T01:28:27;86352.80;;;1.10
74539;BMP180;66042;51.090;-115.340;2023-02-11T01:30:55;86359.60;;;1.10
74539;BMP180;66042;51.090;-115.340;2023-02-11T01:33:23;86360.60;;;1.10
74539;BMP180;66042;51.090;-115.340;2023-02-11T01:35:50;86363.20;;;1.04
74539;BMP180;66042;51.090;-115.340;2023-02-11T01:38:22;86361.80;;;1.02
74539;BMP180;66042;51.090;-115.340;2023-02-11T01:40:59;86366.00;;;1.00
74539;BMP180;66042;51.090;-115.340;2023-02-11T01:43:31;86364.00;;;1.00
74539;BMP180;66042;51.090;-115.340;2023-02-11T01:46:33;86360.60;;;1.00
74539;BMP180;66042;51.090;-115.340;2023-02-11T01:49:10;86365.60;;;0.96
74539;BMP180;66042;51.090;-115.340;2023-02-11T01:51:47;86369.60;;;0.90
74539;BMP180;66042;51.090;-115.340;2023-02-11T01:54:20;86364.80;;;0.90
74539;BMP180;66042;51.090;-115.340;2023-02-11T01:57:07;86366.80;;;0.90
74539;BMP180;66042;51.090;-115.340;2023-02-11T02:05:31;86371.80;;;0.80
74539;BMP180;66042;51.090;-115.340;2023-02-11T02:10:51;86378.80;;;0.80
74539;BMP180;66042;51.090;-115.340;2023-02-11T02:13:26;86382.60;;;0.80
74539;BMP180;66042;51.090;-115.340;2023-02-11T02:15:57;86383.20;;;0.70
74539;BMP180;66042;51.090;-115.340;2023-02-11T02:30:10;86383.60;;;0.50
74539;BMP180;66042;51.090;-115.340;2023-02-11T02:36:04;86378.80;;;0.40
74539;BMP180;66042;51.090;-115.340;2023-02-11T02:38:51;86367.60;;;0.30
74539;BMP180;66042;51.090;-115.340;2023-02-11T02:41:27;86363.40;;;0.18
74539;BMP180;66042;51.090;-115.340;2023-02-11T02:43:55;86357.80;;;0.10
74539;BMP180;66042;51.090;-115.340;2023-02-11T02:46:26;86355.20;;;0.00
74539;BMP180;66042;51.090;-115.340;2023-02-11T02:48:55;86357.00;;;-0.08
74539;BMP180;66042;51.090;-115.340;2023-02-11T02:55:29;86354.60;;;-0.22
74539;BMP180;66042;51.090;-115.340;2023-02-11T03:01:07;86362.80;;;-0.50
74539;BMP180;66042;51.090;-115.340;2023-02-11T03:06:29;86362.40;;;-0.60
74539;BMP180;66042;51.090;-115.340;2023-02-11T03:11:41;86349.00;;;-0.60
74539;BMP180;66042;51.090;-115.340;2023-02-11T03:14:15;86354.40;;;-0.56
74539;BMP180;66042;51.090;-115.340;2023-02-11T03:16:46;86350.00;;;-0.58
74539;BMP180;66042;51.090;-115.340;2023-02-11T03:19:34;86352.60;;;-0.60
74539;BMP180;66042;51.090;-115.340;2023-02-11T03:22:10;86348.40;;;-0.60
74539;BMP180;66042;51.090;-115.340;2023-02-11T03:24:40;86350.60;;;-0.60
74539;BMP180;66042;51.090;-115.340;2023-02-11T03:27:51;86356.40;;;-0.50
74539;BMP180;66042;51.090;-115.340;2023-02-11T03:30:45;86359.60;;;-0.40
74539;BMP180;66042;51.090;-115.340;2023-02-11T03:33:26;86366.20;;;-0.30
74539;BMP180;66042;51.090;-115.340;2023-02-11T03:36:14;86363.20;;;-0.30
74539;BMP180;66042;51.090;-115.340;2023-02-11T03:38:50;86360.00;;;-0.20
74539;BMP180;66042;51.090;-115.340;2023-02-11T03:41:22;86361.80;;;-0.20
74539;BMP180;66042;51.090;-115.340;2023-02-11T03:43:57;86367.60;;;-0.16
74539;BMP180;66042;51.090;-115.340;2023-02-11T03:46:33;86353.80;;;-0.10
74539;BMP180;66042;51.090;-115.340;2023-02-11T03:49:12;86352.40;;;-0.04
74539;BMP180;66042;51.090;-115.340;2023-02-11T03:51:42;86347.80;;;-0.10
74539;BMP180;66042;51.090;-115.340;2023-02-11T03:54:18;86356.40;;;-0.10
74539;BMP180;66042;51.090;-115.340;2023-02-11T03:56:56;86371.60;;;-0.06
74539;BMP180;66042;51.090;-115.340;2023-02-11T03:59:24;86373.20;;;-0.02
74539;BMP180;66042;51.090;-115.340;2023-02-11T04:01:51;86377.20;;;0.00
74539;BMP180;66042;51.090;-115.340;2023-02-11T04:04:18;86372.60;;;-0.04
74539;BMP180;66042;51.090;-115.340;2023-02-11T04:06:45;86380.80;;;-0.10
74539;BMP180;66042;51.090;-115.340;2023-02-11T04:09:13;86380.00;;;-0.10
74539;BMP180;66042;51.090;-115.340;2023-02-11T04:11:40;86383.60;;;-0.10
74539;BMP180;66042;51.090;-115.340;2023-02-11T04:14:07;86385.60;;;-0.20
74539;BMP180;66042;51.090;-115.340;2023-02-11T04:16:34;86377.80;;;-0.20
74539;BMP180;66042;51.090;-115.340;2023-02-11T04:19:01;86380.40;;;-0.20
74539;BMP180;66042;51.090;-115.340;2023-02-11T04:21:28;86377.40;;;-0.20
74539;BMP180;66042;51.090;-115.340;2023-02-11T04:23:55;86380.20;;;-0.20
74539;BMP180;66042;51.090;-115.340;2023-02-11T04:26:23;86388.00;;;-0.30
74539;BMP180;66042;51.090;-115.340;2023-02-11T04:28:50;86393.20;;;-0.30
74539;BMP180;66042;51.090;-115.340;2023-02-11T04:31:17;86393.40;;;-0.30
74539;BMP180;66042;51.090;-115.340;2023-02-11T04:33:44;86391.60;;;-0.38
74539;BMP180;66042;51.090;-115.340;2023-02-11T04:36:11;86394.80;;;-0.40
74539;BMP180;66042;51.090;-115.340;2023-02-11T04:38:38;86400.60;;;-0.48
74539;BMP180;66042;51.090;-115.340;2023-02-11T04:41:05;86395.00;;;-0.50
74539;BMP180;66042;51.090;-115.340;2023-02-11T04:43:32;86410.40;;;-0.50
74539;BMP180;66042;51.090;-115.340;2023-02-11T04:45:59;86402.20;;;-0.50
74539;BMP180;66042;51.090;-115.340;2023-02-11T04:48:27;86409.00;;;-0.50
74539;BMP180;66042;51.090;-115.340;2023-02-11T04:50:54;86409.20;;;-0.50
74539;BMP180;66042;51.090;-115.340;2023-02-11T04:53:21;86402.00;;;-0.50
74539;BMP180;66042;51.090;-115.340;2023-02-11T04:55:51;86415.80;;;-0.60
74539;BMP180;66042;51.090;-115.340;2023-02-11T04:58:19;86400.00;;;-0.60
74539;BMP180;66042;51.090;-115.340;2023-02-11T05:00:46;86404.20;;;-0.70
74539;BMP180;66042;51.090;-115.340;2023-02-11T05:03:13;86405.00;;;-0.70
74539;BMP180;66042;51.090;-115.340;2023-02-11T05:05:41;86411.00;;;-0.70
74539;BMP180;66042;51.090;-115.340;2023-02-11T05:08:10;86399.00;;;-0.70
74539;BMP180;66042;51.090;-115.340;2023-02-11T05:10:37;86386.60;;;-0.80
74539;BMP180;66042;51.090;-115.340;2023-02-11T05:13:04;86390.40;;;-0.80
74539;BMP180;66042;51.090;-115.340;2023-02-11T05:15:31;86394.80;;;-0.80
74539;BMP180;66042;51.090;-115.340;2023-02-11T05:17:58;86393.00;;;-0.80
74539;BMP180;66042;51.090;-115.340;2023-02-11T05:20:25;86390.40;;;-0.80
74539;BMP180;66042;51.090;-115.340;2023-02-11T05:22:52;86405.80;;;-0.70
74539;BMP180;66042;51.090;-115.340;2023-02-11T05:25:19;86404.00;;;-0.64
74539;BMP180;66042;51.090;-115.340;2023-02-11T05:27:47;86390.00;;;-0.60
74539;BMP180;66042;51.090;-115.340;2023-02-11T05:30:15;86399.80;;;-0.60
74539;BMP180;66042;51.090;-115.340;2023-02-11T05:32:42;86413.00;;;-0.64
74539;BMP180;66042;51.090;-115.340;2023-02-11T05:35:09;86404.20;;;-0.70
74539;BMP180;66042;51.090;-115.340;2023-02-11T05:37:36;86400.80;;;-0.70
74539;BMP180;66042;51.090;-115.340;2023-02-11T05:40:03;86396.80;;;-0.70
74539;BMP180;66042;51.090;-115.340;2023-02-11T05:42:30;86405.60;;;-0.70
74539;BMP180;66042;51.090;-115.340;2023-02-11T05:44:58;86408.40;;;-0.70
74539;BMP180;66042;51.090;-115.340;2023-02-11T05:47:25;86414.40;;;-0.70
74539;BMP180;66042;51.090;-115.340;2023-02-11T05:49:52;86414.40;;;-0.70
74539;BMP180;66042;51.090;-115.340;2023-02-11T05:52:21;86423.20;;;-0.70
74539;BMP180;66042;51.090;-115.340;2023-02-11T05:54:48;86421.40;;;-0.70
74539;BMP180;66042;51.090;-115.340;2023-02-11T05:57:16;86426.80;;;-0.70
74539;BMP180;66042;51.090;-115.340;2023-02-11T05:59:43;86428.60;;;-0.70
74539;BMP180;66042;51.090;-115.340;2023-02-11T06:02:10;86422.60;;;-0.70
74539;BMP180;66042;51.090;-115.340;2023-02-11T06:04:37;86427.00;;;-0.66
74539;BMP180;66042;51.090;-115.340;2023-02-11T06:07:05;86426.60;;;-0.66
74539;BMP180;66042;51.090;-115.340;2023-02-11T06:09:32;86437.60;;;-0.70
74539;BMP180;66042;51.090;-115.340;2023-02-11T06:12:00;86434.80;;;-0.70
74539;BMP180;66042;51.090;-115.340;2023-02-11T06:14:27;86440.40;;;-0.72
74539;BMP180;66042;51.090;-115.340;2023-02-11T06:16:54;86444.20;;;-0.80
74539;BMP180;66042;51.090;-115.340;2023-02-11T06:19:21;86438.20;;;-0.80
74539;BMP180;66042;51.090;-115.340;2023-02-11T06:21:48;86438.60;;;-0.80
74539;BMP180;66042;51.090;-115.340;2023-02-11T06:24:15;86443.40;;;-0.80
74539;BMP180;66042;51.090;-115.340;2023-02-11T06:26:41;86436.40;;;-0.80
74539;BMP180;66042;51.090;-115.340;2023-02-11T06:29:09;86436.00;;;-0.80
74539;BMP180;66042;51.090;-115.340;2023-02-11T06:31:37;86440.60;;;-0.80
74539;BMP180;66042;51.090;-115.340;2023-02-11T06:34:05;86434.00;;;-0.80
74539;BMP180;66042;51.090;-115.340;2023-02-11T06:36:32;86427.00;;;-0.80
74539;BMP180;66042;51.090;-115.340;2023-02-11T06:38:59;86441.60;;;-0.80
74539;BMP180;66042;51.090;-115.340;2023-02-11T06:41:26;86439.40;;;-0.78
74539;BMP180;66042;51.090;-115.340;2023-02-11T06:43:53;86452.60;;;-0.80
74539;BMP180;66042;51.090;-115.340;2023-02-11T06:46:22;86440.60;;;-0.80
74539;BMP180;66042;51.090;-115.340;2023-02-11T06:48:49;86447.00;;;-0.80
74539;BMP180;66042;51.090;-115.340;2023-02-11T06:51:16;86452.80;;;-0.80
74539;BMP180;66042;51.090;-115.340;2023-02-11T06:53:46;86452.40;;;-0.80
74539;BMP180;66042;51.090;-115.340;2023-02-11T06:56:17;86454.40;;;-0.80
74539;BMP180;66042;51.090;-115.340;2023-02-11T06:58:45;86451.80;;;-0.82
74539;BMP180;66042;51.090;-115.340;2023-02-11T07:01:15;86445.20;;;-0.80
74539;BMP180;66042;51.090;-115.340;2023-02-11T07:03:44;86447.00;;;-0.90
74539;BMP180;66042;51.090;-115.340;2023-02-11T07:06:19;86448.80;;;-0.90
74539;BMP180;66042;51.090;-115.340;2023-02-11T07:08:47;86456.60;;;-0.90
74539;BMP180;66042;51.090;-115.340;2023-02-11T07:11:19;86456.40;;;-0.80
74539;BMP180;66042;51.090;-115.340;2023-02-11T07:13:51;86460.80;;;-0.80
74539;BMP180;66042;51.090;-115.340;2023-02-11T07:16:19;86459.80;;;-0.70
74539;BMP180;66042;51.090;-115.340;2023-02-11T07:18:48;86456.00;;;-0.70
74539;BMP180;66042;51.090;-115.340;2023-02-11T07:21:19;86456.80;;;-0.70
74539;BMP180;66042;51.090;-115.340;2023-02-11T07:23:47;86462.60;;;-0.70
74539;BMP180;66042;51.090;-115.340;2023-02-11T07:26:18;86464.20;;;-0.70
74539;BMP180;66042;51.090;-115.340;2023-02-11T07:28:46;86459.20;;;-0.70
74539;BMP180;66042;51.090;-115.340;2023-02-11T07:31:20;86472.60;;;-0.70
74539;BMP180;66042;51.090;-115.340;2023-02-11T07:33:48;86474.80;;;-0.70
74539;BMP180;66042;51.090;-115.340;2023-02-11T07:36:15;86478.20;;;-0.70
74539;BMP180;66042;51.090;-115.340;2023-02-11T07:38:43;86480.40;;;-0.80
74539;BMP180;66042;51.090;-115.340;2023-02-11T07:41:14;86482.80;;;-0.80
74539;BMP180;66042;51.090;-115.340;2023-02-11T07:43:42;86482.40;;;-0.80
74539;BMP180;66042;51.090;-115.340;2023-02-11T07:46:21;86484.60;;;-0.86
74539;BMP180;66042;51.090;-115.340;2023-02-11T07:48:49;86478.40;;;-0.90
74539;BMP180;66042;51.090;-115.340;2023-02-11T07:51:23;86489.00;;;-0.96
74539;BMP180;66042;51.090;-115.340;2023-02-11T07:53:51;86495.00;;;-1.00
74539;BMP180;66042;51.090;-115.340;2023-02-11T07:56:20;86489.60;;;-1.00
74539;BMP180;66042;51.090;-115.340;2023-02-11T07:58:49;86485.80;;;-1.00
74539;BMP180;66042;51.090;-115.340;2023-02-11T08:01:19;86493.40;;;-1.08
74539;BMP180;66042;51.090;-115.340;2023-02-11T08:03:51;86489.00;;;-1.10
74539;BMP180;66042;51.090;-115.340;2023-02-11T08:06:21;86488.40;;;-1.10
74539;BMP180;66042;51.090;-115.340;2023-02-11T08:08:49;86475.00;;;-1.10
74539;BMP180;66042;51.090;-115.340;2023-02-11T08:11:25;86476.80;;;-1.10
74539;BMP180;66042;51.090;-115.340;2023-02-11T08:13:54;86481.40;;;-1.20
74539;BMP180;66042;51.090;-115.340;2023-02-11T08:16:25;86476.80;;;-1.22
74539;BMP180;66042;51.090;-115.340;2023-02-11T08:18:56;86476.60;;;-1.30
74539;BMP180;66042;51.090;-115.340;2023-02-11T08:21:24;86479.80;;;-1.32
74539;BMP180;66042;51.090;-115.340;2023-02-11T08:23:53;86478.60;;;-1.40
74539;BMP180;66042;51.090;-115.340;2023-02-11T08:26:27;86475.60;;;-1.40
74539;BMP180;66042;51.090;-115.340;2023-02-11T08:28:56;86477.60;;;-1.40
74539;BMP180;66042;51.090;-115.340;2023-02-11T08:31:36;86483.20;;;-1.36
74539;BMP180;66042;51.090;-115.340;2023-02-11T08:34:04;86480.40;;;-1.40
74539;BMP180;66042;51.090;-115.340;2023-02-11T08:36:35;86474.40;;;-1.40
74539;BMP180;66042;51.090;-115.340;2023-02-11T08:39:08;86465.80;;;-1.40
74539;BMP180;66042;51.090;-115.340;2023-02-11T08:41:35;86466.40;;;-1.50
74539;BMP180;66042;51.090;-115.340;2023-02-11T08:44:01;86464.60;;;-1.60
74539;BMP180;66042;51.090;-115.340;2023-02-11T08:46:29;86462.20;;;-1.64
74539;BMP180;66042;51.090;-115.340;2023-02-11T08:48:56;86465.60;;;-1.70
74539;BMP180;66042;51.090;-115.340;2023-02-11T08:51:27;86466.20;;;-1.78
74539;BMP180;66042;51.090;-115.340;2023-02-11T08:53:56;86466.20;;;-1.80
74539;BMP180;66042;51.090;-115.340;2023-02-11T08:56:24;86464.80;;;-1.86
74539;BMP180;66042;51.090;-115.340;2023-02-11T08:58:52;86469.20;;;-1.90
74539;BMP180;66042;51.090;-115.340;2023-02-11T09:01:25;86458.80;;;-2.00
74539;BMP180;66042;51.090;-115.340;2023-02-11T09:03:53;86462.80;;;-2.00
74539;BMP180;66042;51.090;-115.340;2023-02-11T09:06:21;86463.80;;;-2.10
74539;BMP180;66042;51.090;-115.340;2023-02-11T09:08:51;86473.20;;;-2.20
74539;BMP180;66042;51.090;-115.340;2023-02-11T09:11:25;86473.20;;;-2.20
74539;BMP180;66042;51.090;-115.340;2023-02-11T09:13:53;86475.20;;;-2.20
74539;BMP180;66042;51.090;-115.340;2023-02-11T09:16:27;86475.40;;;-2.20
74539;BMP180;66042;51.090;-115.340;2023-02-11T09:18:58;86481.20;;;-2.20
74539;BMP180;66042;51.090;-115.340;2023-02-11T09:21:27;86479.20;;;-2.30
74539;BMP180;66042;51.090;-115.340;2023-02-11T09:23:54;86479.40;;;-2.30
74539;BMP180;66042;51.090;-115.340;2023-02-11T09:26:29;86480.20;;;-2.40
74539;BMP180;66042;51.090;-115.340;2023-02-11T09:28:57;86471.40;;;-2.40
74539;BMP180;66042;51.090;-115.340;2023-02-11T09:31:27;86464.60;;;-2.50
74539;BMP180;66042;51.090;-115.340;2023-02-11T09:34:00;86472.60;;;-2.50
74539;BMP180;66042;51.090;-115.340;2023-02-11T09:36:30;86477.60;;;-2.50
74539;BMP180;66042;51.090;-115.340;2023-02-11T09:39:00;86479.80;;;-2.60
74539;BMP180;66042;51.090;-115.340;2023-02-11T09:44:47;86483.00;;;-2.70
74539;BMP180;66042;51.090;-115.340;2023-02-11T09:50:11;86479.00;;;-2.70
74539;BMP180;66042;51.090;-115.340;2023-02-11T09:55:48;86490.00;;;-2.70
74539;BMP180;66042;51.090;-115.340;2023-02-11T09:58:34;86487.80;;;-2.72
74539;BMP180;66042;51.090;-115.340;2023-02-11T10:01:25;86489.00;;;-2.80
74539;BMP180;66042;51.090;-115.340;2023-02-11T10:12:19;86485.00;;;-2.90
74539;BMP180;66042;51.090;-115.340;2023-02-11T10:23:38;86488.00;;;-3.00
74539;BMP180;66042;51.090;-115.340;2023-02-11T10:26:17;86480.60;;;-3.00
74539;BMP180;66042;51.090;-115.340;2023-02-11T10:28:49;86483.60;;;-3.00
74539;BMP180;66042;51.090;-115.340;2023-02-11T10:31:27;86484.00;;;-3.02
74539;BMP180;66042;51.090;-115.340;2023-02-11T10:34:08;86491.80;;;-3.00
74539;BMP180;66042;51.090;-115.340;2023-02-11T10:36:39;86497.40;;;-3.00
74539;BMP180;66042;51.090;-115.340;2023-02-11T10:39:19;86502.80;;;-3.00
74539;BMP180;66042;51.090;-115.340;2023-02-11T10:41:59;86504.80;;;-3.00
74539;BMP180;66042;51.090;-115.340;2023-02-11T10:44:37;86505.00;;;-3.00
74539;BMP180;66042;51.090;-115.340;2023-02-11T10:47:19;86499.00;;;-3.00
74539;BMP180;66042;51.090;-115.340;2023-02-11T10:49:48;86502.80;;;-3.00
74539;BMP180;66042;51.090;-115.340;2023-02-11T10:52:24;86515.40;;;-3.00
74539;BMP180;66042;51.090;-115.340;2023-02-11T10:57:42;86510.80;;;-2.90
74539;BMP180;66042;51.090;-115.340;2023-02-11T11:00:36;86508.40;;;-2.90
74539;BMP180;66042;51.090;-115.340;2023-02-11T11:03:23;86500.40;;;-2.90
74539;BMP180;66042;51.090;-115.340;2023-02-11T11:06:00;86506.80;;;-2.86
74539;BMP180;66042;51.090;-115.340;2023-02-11T11:08:53;86506.60;;;-2.80
74539;BMP180;66042;51.090;-115.340;2023-02-11T11:11:24;86497.80;;;-2.84
74539;BMP180;66042;51.090;-115.340;2023-02-11T11:14:00;86499.20;;;-2.80
74539;BMP180;66042;51.090;-115.340;2023-02-11T11:16:35;86481.00;;;-2.72
74539;BMP180;66042;51.090;-115.340;2023-02-11T11:21:55;86495.20;;;-2.70
74539;BMP180;66042;51.090;-115.340;2023-02-11T11:24:31;86491.20;;;-2.70
74539;BMP180;66042;51.090;-115.340;2023-02-11T11:27:03;86488.00;;;-2.70
74539;BMP180;66042;51.090;-115.340;2023-02-11T11:29:49;86485.20;;;-2.70
74539;BMP180;66042;51.090;-115.340;2023-02-11T11:32:26;86479.60;;;-2.76
74539;BMP180;66042;51.090;-115.340;2023-02-11T11:35:01;86472.80;;;-2.80
74539;BMP180;66042;51.090;-115.340;2023-02-11T11:37:37;86467.60;;;-2.86
74539;BMP180;66042;51.090;-115.340;2023-02-11T11:40:10;86473.80;;;-2.90
74539;BMP180;66042;51.090;-115.340;2023-02-11T11:45:58;86470.60;;;-3.00
74539;BMP180;66042;51.090;-115.340;2023-02-11T11:48:39;86481.20;;;-3.00
74539;BMP180;66042;51.090;-115.340;2023-02-11T11:51:11;86477.60;;;-3.00
74539;BMP180;66042;51.090;-115.340;2023-02-11T11:54:05;86481.60;;;-3.00
74539;BMP180;66042;51.090;-115.340;2023-02-11T11:56:46;86482.80;;;-3.00
74539;BMP180;66042;51.090;-115.340;2023-02-11T11:59:16;86484.40;;;-3.04
74539;BMP180;66042;51.090;-115.340;2023-02-11T12:05:42;86467.80;;;-3.20
74539;BMP180;66042;51.090;-115.340;2023-02-11T12:17:41;86473.20;;;-3.40
74539;BMP180;66042;51.090;-115.340;2023-02-11T12:29:32;86464.20;;;-3.60
74539;BMP180;66042;51.090;-115.340;2023-02-11T12:35:08;86459.60;;;-3.60
74539;BMP180;66042;51.090;-115.340;2023-02-11T12:43:37;86465.40;;;-3.60
74539;BMP180;66042;51.090;-115.340;2023-02-11T12:46:40;86465.40;;;-3.62
74539;BMP180;66042;51.090;-115.340;2023-02-11T12:55:33;86468.00;;;-3.64
74539;BMP180;66042;51.090;-115.340;2023-02-11T12:58:12;86464.00;;;-3.70
74539;BMP180;66042;51.090;-115.340;2023-02-11T13:01:05;86458.00;;;-3.70
74539;BMP180;66042;51.090;-115.340;2023-02-11T13:06:21;86444.00;;;-3.70
74539;BMP180;66042;51.090;-115.340;2023-02-11T13:08:55;86438.20;;;-3.70
74539;BMP180;66042;51.090;-115.340;2023-02-11T13:11:36;86444.40;;;-3.62
74539;BMP180;66042;51.090;-115.340;2023-02-11T13:16:58;86434.20;;;-3.60
74539;BMP180;66042;51.090;-115.340;2023-02-11T13:22:42;86440.20;;;-3.60
74539;BMP180;66042;51.090;-115.340;2023-02-11T13:28:31;86441.60;;;-3.70
74539;BMP180;66042;51.090;-115.340;2023-02-11T13:31:03;86429.20;;;-3.70
74539;BMP180;66042;51.090;-115.340;2023-02-11T13:33:39;86434.80;;;-3.74
74539;BMP180;66042;51.090;-115.340;2023-02-11T13:36:17;86438.60;;;-3.80
74539;BMP180;66042;51.090;-115.340;2023-02-11T13:39:01;86439.40;;;-3.80
74539;BMP180;66042;51.090;-115.340;2023-02-11T13:42:02;86440.20;;;-3.80
74539;BMP180;66042;51.090;-115.340;2023-02-11T13:44:33;86443.80;;;-3.80
74539;BMP180;66042;51.090;-115.340;2023-02-11T13:47:09;86445.40;;;-3.80
74539;BMP180;66042;51.090;-115.340;2023-02-11T13:49:50;86442.00;;;-3.70
74539;BMP180;66042;51.090;-115.340;2023-02-11T13:52:24;86441.60;;;-3.70
74539;BMP180;66042;51.090;-115.340;2023-02-11T13:54:56;86442.20;;;-3.70
74539;BMP180;66042;51.090;-115.340;2023-02-11T13:57:36;86449.00;;;-3.62
74539;BMP180;66042;51.090;-115.340;2023-02-11T14:11:49;86459.60;;;-3.50
74539;BMP180;66042;51.090;-115.340;2023-02-11T14:14:31;86462.20;;;-3.50
74539;BMP180;66042;51.090;-115.340;2023-02-11T14:19:45;86467.80;;;-3.40
74539;BMP180;66042;51.090;-115.340;2023-02-11T14:25:23;86452.40;;;-3.42
74539;BMP180;66042;51.090;-115.340;2023-02-11T14:28:16;86454.80;;;-3.50
74539;BMP180;66042;51.090;-115.340;2023-02-11T14:40:06;86464.60;;;-3.60
74539;BMP180;66042;51.090;-115.340;2023-02-11T14:42:37;86459.60;;;-3.54
74539;BMP180;66042;51.090;-115.340;2023-02-11T14:45:09;86446.80;;;-3.50
74539;BMP180;66042;51.090;-115.340;2023-02-11T14:47:43;86449.20;;;-3.50
74539;BMP180;66042;51.090;-115.340;2023-02-11T14:51:20;86458.00;;;-3.50
74539;BMP180;66042;51.090;-115.340;2023-02-11T14:53:24;86450.60;;;-3.48
74539;BMP180;66042;51.090;-115.340;2023-02-11T14:55:54;86462.20;;;-3.50
74539;BMP180;66042;51.090;-115.340;2023-02-11T14:58:31;86450.40;;;-3.50
74539;BMP180;66042;51.090;-115.340;2023-02-11T15:01:04;86449.60;;;-3.50
74539;BMP180;66042;51.090;-115.340;2023-02-11T15:03:45;86455.80;;;-3.50
74539;BMP180;66042;51.090;-115.340;2023-02-11T15:06:22;86449.00;;;-3.50
74539;BMP180;66042;51.090;-115.340;2023-02-11T15:11:51;86439.60;;;-3.50
74539;BMP180;66042;51.090;-115.340;2023-02-11T15:14:32;86430.40;;;-3.40
74539;BMP180;66042;51.090;-115.340;2023-02-11T15:17:05;86434.60;;;-3.30
74539;BMP180;66042;51.090;-115.340;2023-02-11T15:19:40;86430.00;;;-3.16
74539;BMP180;66042;51.090;-115.340;2023-02-11T15:22:26;86437.60;;;-3.00
74539;BMP180;66042;51.090;-115.340;2023-02-11T15:25:23;86437.80;;;-2.90
74539;BMP180;66042;51.090;-115.340;2023-02-11T15:27:56;86442.80;;;-2.80
74539;BMP180;66042;51.090;-115.340;2023-02-11T15:30:29;86436.20;;;-2.72
74539;BMP180;66042;51.090;-115.340;2023-02-11T15:33:00;86427.20;;;-2.64
74539;BMP180;66042;51.090;-115.340;2023-02-11T15:35:39;86425.80;;;-2.52
74539;BMP180;66042;51.090;-115.340;2023-02-11T15:38:11;86432.00;;;-2.40
74539;BMP180;66042;51.090;-115.340;2023-02-11T15:40:38;86430.60;;;-2.30
74539;BMP180;66042;51.090;-115.340;2023-02-11T15:43:10;86434.40;;;-2.20
74539;BMP180;66042;51.090;-115.340;2023-02-11T15:45:54;86426.40;;;-2.10
74539;BMP180;66042;51.090;-115.340;2023-02-11T15:48:36;86425.20;;;-2.10
74539;BMP180;66042;51.090;-115.340;2023-02-11T15:51:30;86425.00;;;-1.98
74539;BMP180;66042;51.090;-115.340;2023-02-11T15:54:21;86422.60;;;-1.82
74539;BMP180;66042;51.090;-115.340;2023-02-11T15:56:53;86426.80;;;-1.70
74539;BMP180;66042;51.090;-115.340;2023-02-11T15:59:35;86419.00;;;-1.60
74539;BMP180;66042;51.090;-115.340;2023-02-11T16:02:20;86422.00;;;-1.60
74539;BMP180;66042;51.090;-115.340;2023-02-11T16:05:22;86420.00;;;-1.50
74539;BMP180;66042;51.090;-115.340;2023-02-11T16:07:50;86422.00;;;-1.50
74539;BMP180;66042;51.090;-115.340;2023-02-11T16:10:32;86417.20;;;-1.40
74539;BMP180;66042;51.090;-115.340;2023-02-11T16:13:18;86416.80;;;-1.36
74539;BMP180;66042;51.090;-115.340;2023-02-11T16:15:58;86414.40;;;-1.30
74539;BMP180;66042;51.090;-115.340;2023-02-11T16:18:56;86415.80;;;-1.28
74539;BMP180;66042;51.090;-115.340;2023-02-11T16:21:36;86432.20;;;-1.20
74539;BMP180;66042;51.090;-115.340;2023-02-11T16:24:17;86440.40;;;-1.10
74539;BMP180;66042;51.090;-115.340;2023-02-11T16:26:50;86435.80;;;-1.10
74539;BMP180;66042;51.090;-115.340;2023-02-11T16:29:23;86434.80;;;-1.10
74539;BMP180;66042;51.090;-115.340;2023-02-11T16:32:03;86432.20;;;-1.10
74539;BMP180;66042;51.090;-115.340;2023-02-11T16:34:30;86434.60;;;-1.10
74539;BMP180;66042;51.090;-115.340;2023-02-11T16:36:57;86433.40;;;-1.00